sensor_id;sensor_type;location;lat;lon;timestamp;P1;durP1;ratioP1;P2;durP2;ratioP2
51824;SDS011;37879;52.986;6.282;2024-02-28T00:01:55;21.48;;;9.68;;
51824;SDS011;37879;52.986;6.282;2024-02-28T00:04:21;22.20;;;10.70;;
51824;SDS011;37879;52.986;6.282;2024-02-28T00:06:47;20.48;;;10.68;;
51824;SDS011;37879;52.986;6.282;2024-02-28T00:09:12;21.60;;;10.55;;
51824;SDS011;37879;52.986;6.282;2024-02-28T00:11:42;21.08;;;11.25;;
51824;SDS011;37879;52.986;6.282;2024-02-28T00:14:12;26.42;;;11.13;;
51824;SDS011;37879;52.986;6.282;2024-02-28T00:16:41;22.75;;;11.73;;
51824;SDS011;37879;52.986;6.282;2024-02-28T00:19:08;19.95;;;10.70;;
51824;SDS011;37879;52.986;6.282;2024-02-28T00:21:34;21.40;;;10.48;;
51824;SDS011;37879;52.986;6.282;2024-02-28T00:23:59;21.50;;;11.00;;
51824;SDS011;37879;52.986;6.282;2024-02-28T00:26:25;22.35;;;12.13;;
51824;SDS011;37879;52.986;6.282;2024-02-28T00:28:51;24.95;;;12.02;;
51824;SDS011;37879;52.986;6.282;2024-02-28T00:31:16;21.98;;;11.32;;
51824;SDS011;37879;52.986;6.282;2024-02-28T00:33:42;23.90;;;11.57;;
51824;SDS011;37879;52.986;6.282;2024-02-28T00:36:08;23.33;;;12.00;;
51824;SDS011;37879;52.986;6.282;2024-02-28T00:38:34;23.05;;;10.90;;
51824;SDS011;37879;52.986;6.282;2024-02-28T00:40:59;19.85;;;10.63;;
51824;SDS011;37879;52.986;6.282;2024-02-28T00:43:25;21.70;;;10.95;;
51824;SDS011;37879;52.986;6.282;2024-02-28T00:45:51;24.17;;;11.40;;
51824;SDS011;37879;52.986;6.282;2024-02-28T00:48:16;23.75;;;11.75;;
51824;SDS011;37879;52.986;6.282;2024-02-28T00:50:43;26.92;;;11.18;;
51824;SDS011;37879;52.986;6.282;2024-02-28T00:53:08;20.13;;;9.82;;
51824;SDS011;37879;52.986;6.282;2024-02-28T00:55:34;26.48;;;12.85;;
51824;SDS011;37879;52.986;6.282;2024-02-28T00:58:00;27.08;;;11.85;;
51824;SDS011;37879;52.986;6.282;2024-02-28T01:00:25;19.48;;;11.43;;
51824;SDS011;37879;52.986;6.282;2024-02-28T01:02:51;26.00;;;11.95;;
51824;SDS011;37879;52.986;6.282;2024-02-28T01:05:17;24.35;;;11.98;;
51824;SDS011;37879;52.986;6.282;2024-02-28T01:07:42;20.98;;;11.57;;
51824;SDS011;37879;52.986;6.282;2024-02-28T01:10:09;23.75;;;11.65;;
51824;SDS011;37879;52.986;6.282;2024-02-28T01:12:35;23.83;;;11.10;;
51824;SDS011;37879;52.986;6.282;2024-02-28T01:15:01;20.67;;;10.43;;
51824;SDS011;37879;52.986;6.282;2024-02-28T01:17:26;22.52;;;12.32;;
51824;SDS011;37879;52.986;6.282;2024-02-28T01:19:52;23.35;;;10.90;;
51824;SDS011;37879;52.986;6.282;2024-02-28T01:22:18;19.60;;;10.02;;
51824;SDS011;37879;52.986;6.282;2024-02-28T01:24:43;20.90;;;10.73;;
51824;SDS011;37879;52.986;6.282;2024-02-28T01:27:09;21.90;;;11.35;;
51824;SDS011;37879;52.986;6.282;2024-02-28T01:29:35;22.58;;;11.95;;
51824;SDS011;37879;52.986;6.282;2024-02-28T01:32:00;20.30;;;9.93;;
51824;SDS011;37879;52.986;6.282;2024-02-28T01:34:26;22.52;;;12.00;;
51824;SDS011;37879;52.986;6.282;2024-02-28T01:36:52;20.50;;;10.60;;
51824;SDS011;37879;52.986;6.282;2024-02-28T01:39:17;25.65;;;12.05;;
51824;SDS011;37879;52.986;6.282;2024-02-28T01:41:50;22.15;;;11.55;;
51824;SDS011;37879;52.986;6.282;2024-02-28T01:44:17;22.17;;;11.55;;
51824;SDS011;37879;52.986;6.282;2024-02-28T01:46:43;22.23;;;12.13;;
51824;SDS011;37879;52.986;6.282;2024-02-28T01:49:09;21.13;;;11.55;;
51824;SDS011;37879;52.986;6.282;2024-02-28T01:51:35;22.15;;;11.32;;
51824;SDS011;37879;52.986;6.282;2024-02-28T01:54:01;20.33;;;11.10;;
51824;SDS011;37879;52.986;6.282;2024-02-28T01:56:27;19.42;;;10.23;;
51824;SDS011;37879;52.986;6.282;2024-02-28T01:58:54;24.48;;;11.73;;
51824;SDS011;37879;52.986;6.282;2024-02-28T02:01:21;24.17;;;11.75;;
51824;SDS011;37879;52.986;6.282;2024-02-28T02:03:47;21.48;;;10.20;;
51824;SDS011;37879;52.986;6.282;2024-02-28T02:06:13;24.08;;;12.45;;
51824;SDS011;37879;52.986;6.282;2024-02-28T02:08:39;24.75;;;12.30;;
51824;SDS011;37879;52.986;6.282;2024-02-28T02:11:06;23.45;;;11.90;;
51824;SDS011;37879;52.986;6.282;2024-02-28T02:13:32;22.85;;;11.43;;
51824;SDS011;37879;52.986;6.282;2024-02-28T02:15:58;22.90;;;11.57;;
51824;SDS011;37879;52.986;6.282;2024-02-28T02:18:23;24.88;;;13.07;;
51824;SDS011;37879;52.986;6.282;2024-02-28T02:20:59;19.88;;;11.23;;
51824;SDS011;37879;52.986;6.282;2024-02-28T02:23:30;24.35;;;13.07;;
51824;SDS011;37879;52.986;6.282;2024-02-28T02:25:55;19.67;;;10.68;;
51824;SDS011;37879;52.986;6.282;2024-02-28T02:28:21;23.63;;;11.90;;
51824;SDS011;37879;52.986;6.282;2024-02-28T02:30:47;26.00;;;13.32;;
51824;SDS011;37879;52.986;6.282;2024-02-28T02:33:13;26.88;;;13.05;;
51824;SDS011;37879;52.986;6.282;2024-02-28T02:35:39;25.15;;;12.23;;
51824;SDS011;37879;52.986;6.282;2024-02-28T02:38:05;24.88;;;12.52;;
51824;SDS011;37879;52.986;6.282;2024-02-28T02:40:30;27.17;;;12.60;;
51824;SDS011;37879;52.986;6.282;2024-02-28T02:42:56;28.30;;;13.18;;
51824;SDS011;37879;52.986;6.282;2024-02-28T02:45:22;31.67;;;14.20;;
51824;SDS011;37879;52.986;6.282;2024-02-28T02:47:47;26.85;;;12.50;;
51824;SDS011;37879;52.986;6.282;2024-02-28T02:50:13;30.08;;;13.65;;
51824;SDS011;37879;52.986;6.282;2024-02-28T02:52:39;26.27;;;14.23;;
51824;SDS011;37879;52.986;6.282;2024-02-28T02:55:05;26.27;;;13.13;;
51824;SDS011;37879;52.986;6.282;2024-02-28T02:57:32;28.23;;;13.32;;
51824;SDS011;37879;52.986;6.282;2024-02-28T02:59:58;27.75;;;14.00;;
51824;SDS011;37879;52.986;6.282;2024-02-28T03:02:24;28.48;;;14.20;;
51824;SDS011;37879;52.986;6.282;2024-02-28T03:04:49;30.08;;;13.90;;
51824;SDS011;37879;52.986;6.282;2024-02-28T03:07:15;26.55;;;13.07;;
51824;SDS011;37879;52.986;6.282;2024-02-28T03:09:41;25.55;;;13.68;;
51824;SDS011;37879;52.986;6.282;2024-02-28T03:12:07;24.45;;;11.35;;
51824;SDS011;37879;52.986;6.282;2024-02-28T03:14:34;27.98;;;14.75;;
51824;SDS011;37879;52.986;6.282;2024-02-28T03:17:00;27.98;;;14.10;;
51824;SDS011;37879;52.986;6.282;2024-02-28T03:19:26;27.15;;;12.45;;
51824;SDS011;37879;52.986;6.282;2024-02-28T03:21:52;26.92;;;13.68;;
51824;SDS011;37879;52.986;6.282;2024-02-28T03:24:18;26.70;;;13.85;;
51824;SDS011;37879;52.986;6.282;2024-02-28T03:26:44;25.55;;;13.75;;
51824;SDS011;37879;52.986;6.282;2024-02-28T03:29:09;26.88;;;15.27;;
51824;SDS011;37879;52.986;6.282;2024-02-28T03:31:35;24.75;;;13.38;;
51824;SDS011;37879;52.986;6.282;2024-02-28T03:34:01;23.05;;;11.98;;
51824;SDS011;37879;52.986;6.282;2024-02-28T03:36:27;25.02;;;12.57;;
51824;SDS011;37879;52.986;6.282;2024-02-28T03:38:53;24.70;;;13.85;;
51824;SDS011;37879;52.986;6.282;2024-02-28T03:41:19;29.38;;;14.27;;
51824;SDS011;37879;52.986;6.282;2024-02-28T03:43:45;27.45;;;12.90;;
51824;SDS011;37879;52.986;6.282;2024-02-28T03:46:10;25.80;;;13.18;;
51824;SDS011;37879;52.986;6.282;2024-02-28T03:48:36;25.83;;;12.52;;
51824;SDS011;37879;52.986;6.282;2024-02-28T03:51:02;22.30;;;11.70;;
51824;SDS011;37879;52.986;6.282;2024-02-28T03:53:28;27.27;;;15.00;;
51824;SDS011;37879;52.986;6.282;2024-02-28T03:55:54;28.50;;;15.18;;
51824;SDS011;37879;52.986;6.282;2024-02-28T03:58:20;23.88;;;12.48;;
51824;SDS011;37879;52.986;6.282;2024-02-28T04:00:46;24.77;;;13.10;;
51824;SDS011;37879;52.986;6.282;2024-02-28T04:03:11;32.70;;;13.82;;
51824;SDS011;37879;52.986;6.282;2024-02-28T04:05:39;29.02;;;14.07;;
51824;SDS011;37879;52.986;6.282;2024-02-28T04:08:05;28.88;;;14.70;;
51824;SDS011;37879;52.986;6.282;2024-02-28T04:10:31;25.48;;;13.02;;
51824;SDS011;37879;52.986;6.282;2024-02-28T04:12:56;27.13;;;13.18;;
51824;SDS011;37879;52.986;6.282;2024-02-28T04:15:22;30.17;;;13.77;;
51824;SDS011;37879;52.986;6.282;2024-02-28T04:17:51;25.35;;;13.73;;
51824;SDS011;37879;52.986;6.282;2024-02-28T04:20:16;29.08;;;13.65;;
51824;SDS011;37879;52.986;6.282;2024-02-28T04:22:42;27.42;;;14.38;;
51824;SDS011;37879;52.986;6.282;2024-02-28T04:25:08;22.52;;;12.48;;
51824;SDS011;37879;52.986;6.282;2024-02-28T04:27:35;28.45;;;13.52;;
51824;SDS011;37879;52.986;6.282;2024-02-28T04:30:01;28.45;;;14.85;;
51824;SDS011;37879;52.986;6.282;2024-02-28T04:32:26;28.88;;;13.40;;
51824;SDS011;37879;52.986;6.282;2024-02-28T04:34:52;27.48;;;12.90;;
51824;SDS011;37879;52.986;6.282;2024-02-28T04:37:18;28.00;;;13.95;;
51824;SDS011;37879;52.986;6.282;2024-02-28T04:39:44;24.67;;;13.77;;
51824;SDS011;37879;52.986;6.282;2024-02-28T04:42:09;23.60;;;12.50;;
51824;SDS011;37879;52.986;6.282;2024-02-28T04:44:35;23.58;;;13.02;;
51824;SDS011;37879;52.986;6.282;2024-02-28T04:47:01;23.80;;;13.68;;
51824;SDS011;37879;52.986;6.282;2024-02-28T04:49:27;24.23;;;11.65;;
51824;SDS011;37879;52.986;6.282;2024-02-28T04:51:53;22.98;;;12.40;;
51824;SDS011;37879;52.986;6.282;2024-02-28T04:54:19;27.23;;;13.02;;
51824;SDS011;37879;52.986;6.282;2024-02-28T04:56:44;24.17;;;11.80;;
51824;SDS011;37879;52.986;6.282;2024-02-28T04:59:11;21.10;;;11.27;;
51824;SDS011;37879;52.986;6.282;2024-02-28T05:01:40;24.30;;;12.05;;
51824;SDS011;37879;52.986;6.282;2024-02-28T05:04:08;28.90;;;14.23;;
51824;SDS011;37879;52.986;6.282;2024-02-28T05:06:34;23.67;;;11.82;;
51824;SDS011;37879;52.986;6.282;2024-02-28T05:09:01;26.13;;;12.88;;
51824;SDS011;37879;52.986;6.282;2024-02-28T05:11:27;23.98;;;11.90;;
51824;SDS011;37879;52.986;6.282;2024-02-28T05:13:53;24.40;;;11.63;;
51824;SDS011;37879;52.986;6.282;2024-02-28T05:16:19;25.75;;;12.68;;
51824;SDS011;37879;52.986;6.282;2024-02-28T05:18:44;23.67;;;11.73;;
51824;SDS011;37879;52.986;6.282;2024-02-28T05:21:11;20.10;;;11.57;;
51824;SDS011;37879;52.986;6.282;2024-02-28T05:23:37;23.80;;;12.85;;
51824;SDS011;37879;52.986;6.282;2024-02-28T05:26:03;23.67;;;12.60;;
51824;SDS011;37879;52.986;6.282;2024-02-28T05:28:38;24.25;;;12.32;;
51824;SDS011;37879;52.986;6.282;2024-02-28T05:31:25;24.98;;;12.05;;
51824;SDS011;37879;52.986;6.282;2024-02-28T05:33:51;23.35;;;12.55;;
51824;SDS011;37879;52.986;6.282;2024-02-28T05:36:24;24.80;;;11.80;;
51824;SDS011;37879;52.986;6.282;2024-02-28T05:38:51;20.35;;;11.85;;
51824;SDS011;37879;52.986;6.282;2024-02-28T05:41:18;23.77;;;11.75;;
51824;SDS011;37879;52.986;6.282;2024-02-28T05:43:44;20.73;;;10.88;;
51824;SDS011;37879;52.986;6.282;2024-02-28T05:46:13;22.40;;;12.10;;
51824;SDS011;37879;52.986;6.282;2024-02-28T05:48:40;24.13;;;11.73;;
51824;SDS011;37879;52.986;6.282;2024-02-28T05:51:06;23.63;;;12.02;;
51824;SDS011;37879;52.986;6.282;2024-02-28T05:53:32;22.92;;;12.02;;
51824;SDS011;37879;52.986;6.282;2024-02-28T05:56:04;25.15;;;13.38;;
51824;SDS011;37879;52.986;6.282;2024-02-28T05:58:42;24.20;;;12.75;;
51824;SDS011;37879;52.986;6.282;2024-02-28T06:01:09;25.23;;;12.52;;
51824;SDS011;37879;52.986;6.282;2024-02-28T06:03:36;26.33;;;13.05;;
51824;SDS011;37879;52.986;6.282;2024-02-28T06:06:02;28.20;;;13.45;;
51824;SDS011;37879;52.986;6.282;2024-02-28T06:08:33;24.80;;;12.65;;
51824;SDS011;37879;52.986;6.282;2024-02-28T06:11:00;22.45;;;11.70;;
51824;SDS011;37879;52.986;6.282;2024-02-28T06:13:27;23.25;;;12.40;;
51824;SDS011;37879;52.986;6.282;2024-02-28T06:15:54;25.50;;;12.43;;
51824;SDS011;37879;52.986;6.282;2024-02-28T06:18:20;25.60;;;12.15;;
51824;SDS011;37879;52.986;6.282;2024-02-28T06:20:48;24.50;;;13.20;;
51824;SDS011;37879;52.986;6.282;2024-02-28T06:23:14;23.60;;;12.85;;
51824;SDS011;37879;52.986;6.282;2024-02-28T06:25:40;24.88;;;13.38;;
51824;SDS011;37879;52.986;6.282;2024-02-28T06:28:05;23.42;;;11.35;;
51824;SDS011;37879;52.986;6.282;2024-02-28T06:30:32;24.98;;;13.75;;
51824;SDS011;37879;52.986;6.282;2024-02-28T06:32:59;27.08;;;13.43;;
51824;SDS011;37879;52.986;6.282;2024-02-28T06:35:25;24.92;;;12.50;;
51824;SDS011;37879;52.986;6.282;2024-02-28T06:37:51;24.33;;;12.60;;
51824;SDS011;37879;52.986;6.282;2024-02-28T06:40:17;26.42;;;13.52;;
51824;SDS011;37879;52.986;6.282;2024-02-28T06:42:43;22.92;;;11.35;;
51824;SDS011;37879;52.986;6.282;2024-02-28T06:45:09;25.85;;;12.70;;
51824;SDS011;37879;52.986;6.282;2024-02-28T06:47:35;24.17;;;12.93;;
51824;SDS011;37879;52.986;6.282;2024-02-28T06:50:05;23.85;;;12.52;;
51824;SDS011;37879;52.986;6.282;2024-02-28T06:52:31;33.05;;;16.15;;
51824;SDS011;37879;52.986;6.282;2024-02-28T06:54:58;27.77;;;13.77;;
51824;SDS011;37879;52.986;6.282;2024-02-28T06:57:25;27.05;;;13.88;;
51824;SDS011;37879;52.986;6.282;2024-02-28T06:59:50;25.65;;;13.73;;
51824;SDS011;37879;52.986;6.282;2024-02-28T07:02:16;24.20;;;12.35;;
51824;SDS011;37879;52.986;6.282;2024-02-28T07:04:42;21.63;;;11.80;;
51824;SDS011;37879;52.986;6.282;2024-02-28T07:07:08;23.33;;;11.40;;
51824;SDS011;37879;52.986;6.282;2024-02-28T07:09:34;23.08;;;12.13;;
51824;SDS011;37879;52.986;6.282;2024-02-28T07:11:59;20.65;;;11.75;;
51824;SDS011;37879;52.986;6.282;2024-02-28T07:14:26;22.40;;;12.13;;
51824;SDS011;37879;52.986;6.282;2024-02-28T07:16:52;22.05;;;12.77;;
51824;SDS011;37879;52.986;6.282;2024-02-28T07:19:18;22.70;;;11.65;;
51824;SDS011;37879;52.986;6.282;2024-02-28T07:21:44;22.80;;;13.18;;
51824;SDS011;37879;52.986;6.282;2024-02-28T07:24:10;23.00;;;12.13;;
51824;SDS011;37879;52.986;6.282;2024-02-28T07:26:35;27.25;;;13.27;;
51824;SDS011;37879;52.986;6.282;2024-02-28T07:29:01;25.30;;;13.18;;
51824;SDS011;37879;52.986;6.282;2024-02-28T07:31:27;25.42;;;12.75;;
51824;SDS011;37879;52.986;6.282;2024-02-28T07:33:53;24.30;;;12.05;;
51824;SDS011;37879;52.986;6.282;2024-02-28T07:36:22;22.33;;;11.55;;
51824;SDS011;37879;52.986;6.282;2024-02-28T07:38:47;23.92;;;13.63;;
51824;SDS011;37879;52.986;6.282;2024-02-28T07:41:13;22.58;;;12.00;;
51824;SDS011;37879;52.986;6.282;2024-02-28T07:43:42;22.90;;;11.45;;
51824;SDS011;37879;52.986;6.282;2024-02-28T07:46:08;24.10;;;11.60;;
51824;SDS011;37879;52.986;6.282;2024-02-28T07:48:36;24.63;;;11.90;;
51824;SDS011;37879;52.986;6.282;2024-02-28T07:51:06;20.75;;;11.38;;
51824;SDS011;37879;52.986;6.282;2024-02-28T07:53:32;28.10;;;13.38;;
51824;SDS011;37879;52.986;6.282;2024-02-28T07:55:58;23.33;;;13.45;;
51824;SDS011;37879;52.986;6.282;2024-02-28T07:58:24;25.83;;;12.52;;
51824;SDS011;37879;52.986;6.282;2024-02-28T08:00:50;25.15;;;13.32;;
51824;SDS011;37879;52.986;6.282;2024-02-28T08:03:17;21.70;;;12.30;;
51824;SDS011;37879;52.986;6.282;2024-02-28T08:05:43;24.77;;;12.80;;
51824;SDS011;37879;52.986;6.282;2024-02-28T08:08:09;22.15;;;13.30;;
51824;SDS011;37879;52.986;6.282;2024-02-28T08:10:37;24.17;;;13.18;;
51824;SDS011;37879;52.986;6.282;2024-02-28T08:13:06;21.58;;;12.75;;
51824;SDS011;37879;52.986;6.282;2024-02-28T08:15:32;22.88;;;12.45;;
51824;SDS011;37879;52.986;6.282;2024-02-28T08:17:59;25.60;;;12.52;;
51824;SDS011;37879;52.986;6.282;2024-02-28T08:20:25;22.67;;;12.45;;
51824;SDS011;37879;52.986;6.282;2024-02-28T08:22:52;22.25;;;12.40;;
51824;SDS011;37879;52.986;6.282;2024-02-28T08:25:22;21.83;;;12.13;;
51824;SDS011;37879;52.986;6.282;2024-02-28T08:27:48;21.55;;;12.43;;
51824;SDS011;37879;52.986;6.282;2024-02-28T08:30:13;23.88;;;13.00;;
51824;SDS011;37879;52.986;6.282;2024-02-28T08:32:40;24.60;;;12.75;;
51824;SDS011;37879;52.986;6.282;2024-02-28T08:35:08;22.00;;;11.85;;
51824;SDS011;37879;52.986;6.282;2024-02-28T08:37:35;26.85;;;14.18;;
51824;SDS011;37879;52.986;6.282;2024-02-28T08:40:01;24.33;;;13.20;;
51824;SDS011;37879;52.986;6.282;2024-02-28T08:42:26;25.63;;;14.77;;
51824;SDS011;37879;52.986;6.282;2024-02-28T08:44:53;25.77;;;14.00;;
51824;SDS011;37879;52.986;6.282;2024-02-28T08:47:26;25.23;;;13.82;;
51824;SDS011;37879;52.986;6.282;2024-02-28T08:49:55;24.30;;;14.43;;
51824;SDS011;37879;52.986;6.282;2024-02-28T08:52:21;27.73;;;15.25;;
51824;SDS011;37879;52.986;6.282;2024-02-28T08:54:47;23.88;;;13.27;;
51824;SDS011;37879;52.986;6.282;2024-02-28T08:57:13;27.83;;;15.82;;
51824;SDS011;37879;52.986;6.282;2024-02-28T08:59:39;26.33;;;14.55;;
51824;SDS011;37879;52.986;6.282;2024-02-28T09:02:05;26.42;;;14.25;;
51824;SDS011;37879;52.986;6.282;2024-02-28T09:04:36;22.92;;;12.85;;
51824;SDS011;37879;52.986;6.282;2024-02-28T09:07:02;22.60;;;13.65;;
51824;SDS011;37879;52.986;6.282;2024-02-28T09:09:27;25.33;;;14.60;;
51824;SDS011;37879;52.986;6.282;2024-02-28T09:11:55;27.30;;;14.60;;
51824;SDS011;37879;52.986;6.282;2024-02-28T09:14:20;24.02;;;13.80;;
51824;SDS011;37879;52.986;6.282;2024-02-28T09:16:47;25.13;;;13.63;;
51824;SDS011;37879;52.986;6.282;2024-02-28T09:19:12;24.33;;;13.77;;
51824;SDS011;37879;52.986;6.282;2024-02-28T09:21:38;26.33;;;14.55;;
51824;SDS011;37879;52.986;6.282;2024-02-28T09:24:04;24.83;;;13.10;;
51824;SDS011;37879;52.986;6.282;2024-02-28T09:26:30;22.50;;;12.88;;
51824;SDS011;37879;52.986;6.282;2024-02-28T09:28:56;22.00;;;12.50;;
51824;SDS011;37879;52.986;6.282;2024-02-28T09:31:22;27.02;;;13.38;;
51824;SDS011;37879;52.986;6.282;2024-02-28T09:33:47;26.30;;;14.13;;
51824;SDS011;37879;52.986;6.282;2024-02-28T09:36:14;26.75;;;13.85;;
51824;SDS011;37879;52.986;6.282;2024-02-28T09:38:40;26.25;;;14.45;;
51824;SDS011;37879;52.986;6.282;2024-02-28T09:41:07;24.25;;;13.93;;
51824;SDS011;37879;52.986;6.282;2024-02-28T09:43:39;23.98;;;13.73;;
51824;SDS011;37879;52.986;6.282;2024-02-28T09:46:07;24.85;;;14.95;;
51824;SDS011;37879;52.986;6.282;2024-02-28T09:48:38;25.00;;;13.82;;
51824;SDS011;37879;52.986;6.282;2024-02-28T09:51:05;25.88;;;15.65;;
51824;SDS011;37879;52.986;6.282;2024-02-28T09:53:33;24.70;;;13.23;;
51824;SDS011;37879;52.986;6.282;2024-02-28T09:55:58;24.85;;;14.23;;
51824;SDS011;37879;52.986;6.282;2024-02-28T09:58:24;24.65;;;14.68;;
51824;SDS011;37879;52.986;6.282;2024-02-28T10:00:51;25.95;;;15.02;;
51824;SDS011;37879;52.986;6.282;2024-02-28T10:03:21;25.65;;;13.20;;
51824;SDS011;37879;52.986;6.282;2024-02-28T10:05:50;25.27;;;14.52;;
51824;SDS011;37879;52.986;6.282;2024-02-28T10:08:16;24.00;;;13.27;;
51824;SDS011;37879;52.986;6.282;2024-02-28T10:10:48;26.08;;;14.60;;
51824;SDS011;37879;52.986;6.282;2024-02-28T10:13:17;21.73;;;12.90;;
51824;SDS011;37879;52.986;6.282;2024-02-28T10:15:44;23.92;;;13.13;;
51824;SDS011;37879;52.986;6.282;2024-02-28T10:18:10;25.33;;;14.18;;
51824;SDS011;37879;52.986;6.282;2024-02-28T10:20:36;23.65;;;13.38;;
51824;SDS011;37879;52.986;6.282;2024-02-28T10:23:08;27.00;;;14.40;;
51824;SDS011;37879;52.986;6.282;2024-02-28T10:30:42;24.63;;;12.57;;
51824;SDS011;37879;52.986;6.282;2024-02-28T10:33:15;24.50;;;13.50;;
51824;SDS011;37879;52.986;6.282;2024-02-28T10:35:41;24.70;;;13.95;;
51824;SDS011;37879;52.986;6.282;2024-02-28T10:38:10;24.08;;;13.55;;
51824;SDS011;37879;52.986;6.282;2024-02-28T10:40:38;22.25;;;13.15;;
51824;SDS011;37879;52.986;6.282;2024-02-28T10:43:08;28.45;;;14.80;;
51824;SDS011;37879;52.986;6.282;2024-02-28T10:45:35;25.08;;;13.63;;
51824;SDS011;37879;52.986;6.282;2024-02-28T10:48:05;20.92;;;13.55;;
51824;SDS011;37879;52.986;6.282;2024-02-28T10:50:32;27.85;;;15.07;;
51824;SDS011;37879;52.986;6.282;2024-02-28T10:53:12;22.10;;;13.05;;
51824;SDS011;37879;52.986;6.282;2024-02-28T10:55:40;24.38;;;14.73;;
51824;SDS011;37879;52.986;6.282;2024-02-28T10:58:07;24.98;;;14.07;;
51824;SDS011;37879;52.986;6.282;2024-02-28T11:00:35;25.67;;;15.77;;
51824;SDS011;37879;52.986;6.282;2024-02-28T11:03:06;29.83;;;15.63;;
51824;SDS011;37879;52.986;6.282;2024-02-28T11:05:36;26.70;;;15.60;;
51824;SDS011;37879;52.986;6.282;2024-02-28T11:08:24;25.60;;;15.40;;
51824;SDS011;37879;52.986;6.282;2024-02-28T11:13:24;25.70;;;15.70;;
51824;SDS011;37879;52.986;6.282;2024-02-28T11:15:51;24.90;;;14.25;;
51824;SDS011;37879;52.986;6.282;2024-02-28T11:18:18;25.40;;;15.00;;
51824;SDS011;37879;52.986;6.282;2024-02-28T11:20:44;26.48;;;15.57;;
51824;SDS011;37879;52.986;6.282;2024-02-28T11:23:14;27.83;;;15.23;;
51824;SDS011;37879;52.986;6.282;2024-02-28T11:25:42;24.95;;;15.50;;
51824;SDS011;37879;52.986;6.282;2024-02-28T11:28:08;27.67;;;16.23;;
51824;SDS011;37879;52.986;6.282;2024-02-28T11:30:34;29.05;;;16.75;;
51824;SDS011;37879;52.986;6.282;2024-02-28T11:33:01;24.40;;;14.55;;
51824;SDS011;37879;52.986;6.282;2024-02-28T11:35:27;24.77;;;14.68;;
51824;SDS011;37879;52.986;6.282;2024-02-28T11:37:56;24.00;;;14.20;;
51824;SDS011;37879;52.986;6.282;2024-02-28T11:40:25;23.35;;;13.70;;
51824;SDS011;37879;52.986;6.282;2024-02-28T11:42:52;22.63;;;13.80;;
51824;SDS011;37879;52.986;6.282;2024-02-28T11:45:19;22.88;;;13.45;;
51824;SDS011;37879;52.986;6.282;2024-02-28T11:47:45;23.33;;;13.48;;
51824;SDS011;37879;52.986;6.282;2024-02-28T11:50:12;24.27;;;14.05;;
51824;SDS011;37879;52.986;6.282;2024-02-28T11:52:39;21.55;;;13.63;;
51824;SDS011;37879;52.986;6.282;2024-02-28T11:55:06;23.70;;;13.85;;
51824;SDS011;37879;52.986;6.282;2024-02-28T11:57:32;16.65;;;11.98;;
51824;SDS011;37879;52.986;6.282;2024-02-28T12:00:05;20.42;;;14.00;;
51824;SDS011;37879;52.986;6.282;2024-02-28T12:02:32;18.65;;;12.70;;
51824;SDS011;37879;52.986;6.282;2024-02-28T12:05:04;20.77;;;12.57;;
51824;SDS011;37879;52.986;6.282;2024-02-28T12:07:31;22.65;;;12.43;;
51824;SDS011;37879;52.986;6.282;2024-02-28T12:09:57;19.27;;;11.98;;
51824;SDS011;37879;52.986;6.282;2024-02-28T12:12:23;21.15;;;13.55;;
51824;SDS011;37879;52.986;6.282;2024-02-28T12:14:50;21.08;;;12.45;;
51824;SDS011;37879;52.986;6.282;2024-02-28T12:17:16;19.10;;;11.88;;
51824;SDS011;37879;52.986;6.282;2024-02-28T12:19:41;19.02;;;12.63;;
51824;SDS011;37879;52.986;6.282;2024-02-28T12:22:08;23.95;;;14.27;;
51824;SDS011;37879;52.986;6.282;2024-02-28T12:24:34;21.92;;;14.07;;
51824;SDS011;37879;52.986;6.282;2024-02-28T12:27:00;20.67;;;14.25;;
51824;SDS011;37879;52.986;6.282;2024-02-28T12:29:25;22.67;;;14.30;;
51824;SDS011;37879;52.986;6.282;2024-02-28T12:31:51;19.45;;;13.07;;
51824;SDS011;37879;52.986;6.282;2024-02-28T12:34:17;21.38;;;13.85;;
51824;SDS011;37879;52.986;6.282;2024-02-28T12:36:43;20.58;;;13.95;;
51824;SDS011;37879;52.986;6.282;2024-02-28T12:39:09;22.25;;;14.23;;
51824;SDS011;37879;52.986;6.282;2024-02-28T12:41:37;20.88;;;13.30;;
51824;SDS011;37879;52.986;6.282;2024-02-28T12:44:04;26.08;;;14.68;;
51824;SDS011;37879;52.986;6.282;2024-02-28T12:46:34;24.15;;;14.95;;
51824;SDS011;37879;52.986;6.282;2024-02-28T12:49:00;21.77;;;13.80;;
51824;SDS011;37879;52.986;6.282;2024-02-28T12:51:39;22.73;;;14.38;;
51824;SDS011;37879;52.986;6.282;2024-02-28T12:54:09;21.73;;;12.80;;
51824;SDS011;37879;52.986;6.282;2024-02-28T12:56:35;22.73;;;13.88;;
51824;SDS011;37879;52.986;6.282;2024-02-28T12:59:02;19.42;;;13.70;;
51824;SDS011;37879;52.986;6.282;2024-02-28T13:01:28;22.55;;;14.02;;
51824;SDS011;37879;52.986;6.282;2024-02-28T13:03:55;22.45;;;13.75;;
51824;SDS011;37879;52.986;6.282;2024-02-28T13:06:21;25.58;;;14.65;;
51824;SDS011;37879;52.986;6.282;2024-02-28T13:08:47;21.00;;;13.82;;
51824;SDS011;37879;52.986;6.282;2024-02-28T13:11:19;22.23;;;14.70;;
51824;SDS011;37879;52.986;6.282;2024-02-28T13:13:47;24.35;;;14.55;;
51824;SDS011;37879;52.986;6.282;2024-02-28T13:16:14;21.33;;;14.75;;
51824;SDS011;37879;52.986;6.282;2024-02-28T13:18:40;21.90;;;14.25;;
51824;SDS011;37879;52.986;6.282;2024-02-28T13:21:06;22.73;;;14.73;;
51824;SDS011;37879;52.986;6.282;2024-02-28T13:23:32;22.00;;;14.55;;
51824;SDS011;37879;52.986;6.282;2024-02-28T13:25:59;24.00;;;14.40;;
51824;SDS011;37879;52.986;6.282;2024-02-28T13:28:25;22.08;;;14.45;;
51824;SDS011;37879;52.986;6.282;2024-02-28T13:30:58;26.75;;;15.63;;
51824;SDS011;37879;52.986;6.282;2024-02-28T13:33:24;21.98;;;14.15;;
51824;SDS011;37879;52.986;6.282;2024-02-28T13:35:51;20.17;;;14.65;;
51824;SDS011;37879;52.986;6.282;2024-02-28T13:38:18;24.15;;;14.85;;
51824;SDS011;37879;52.986;6.282;2024-02-28T13:40:44;21.95;;;14.10;;
51824;SDS011;37879;52.986;6.282;2024-02-28T13:43:14;22.55;;;14.48;;
51824;SDS011;37879;52.986;6.282;2024-02-28T13:45:40;24.15;;;15.13;;
51824;SDS011;37879;52.986;6.282;2024-02-28T13:48:20;24.50;;;14.82;;
51824;SDS011;37879;52.986;6.282;2024-02-28T13:50:56;20.15;;;13.35;;
51824;SDS011;37879;52.986;6.282;2024-02-28T13:53:22;25.42;;;16.02;;
51824;SDS011;37879;52.986;6.282;2024-02-28T13:55:49;24.33;;;15.95;;
51824;SDS011;37879;52.986;6.282;2024-02-28T13:58:15;23.15;;;15.45;;
51824;SDS011;37879;52.986;6.282;2024-02-28T14:00:45;23.08;;;14.90;;
51824;SDS011;37879;52.986;6.282;2024-02-28T14:03:12;23.17;;;15.32;;
51824;SDS011;37879;52.986;6.282;2024-02-28T14:05:38;23.67;;;15.90;;
51824;SDS011;37879;52.986;6.282;2024-02-28T14:08:04;23.83;;;15.48;;
51824;SDS011;37879;52.986;6.282;2024-02-28T14:10:33;22.08;;;14.98;;
51824;SDS011;37879;52.986;6.282;2024-02-28T14:12:59;25.63;;;16.17;;
51824;SDS011;37879;52.986;6.282;2024-02-28T14:15:25;23.35;;;15.73;;
51824;SDS011;37879;52.986;6.282;2024-02-28T14:17:51;23.88;;;16.50;;
51824;SDS011;37879;52.986;6.282;2024-02-28T14:20:17;27.92;;;18.38;;
51824;SDS011;37879;52.986;6.282;2024-02-28T14:22:43;27.25;;;18.58;;
51824;SDS011;37879;52.986;6.282;2024-02-28T14:25:12;26.35;;;16.45;;
51824;SDS011;37879;52.986;6.282;2024-02-28T14:27:46;27.10;;;16.95;;